Terminal Aerodrome Forecast
Issued by NWS Pocatello, ID

Home | Current Version | Previous Version | Text Only | Print | Product List | Glossary On
Versions: 1 2 3 4 5 6 7 8 9 10 11 12 13 14 15 16 17 18
000
FTUS45 KPIH 240500
TAFPIH
TAF
KPIH 240520Z 2406/2506 23011G18KT P6SM SCT200
     FM241000 23015G24KT P6SM SCT150
     FM241500 24023G34KT P6SM FEW150
     FM250300 23011KT P6SM SKC=

USA.gov is the U.S. government's official web portal to all federal, state and local government web resources and services.